KAAA

Logan County Airport

Lincoln, Illinois, USA
METAR KAAA 231015Z AUTO 00000KT 4SM -RA BKN003 OVC018 08/08 A3014 RMK AO2 T00750075
Observed Flight Rules
Feb-23 @ 10:15 UTC (16 minutes ago) Instrument Flight Rules
Wind Visibility Clouds Conditions
Calm 4 miles
  • Broken at 300' AGL
  • Overcast at 1,800' AGL
  • Light Rain
Temperatures Readings
Current 8°C / 46°F
Dewpoint 8°C / 46°F
Humidity 100%
Altimeter 30.14" Hg
Pressure 1021 hPa
Elevation 182
METAR KAAA 231015Z AUTO 00000KT 4SM -RA BKN003 OVC018 08/08 A3014 RMK AO2 T00750075
Observed Flight Rules
Feb-23 @ 10:15 UTC
(16 minutes ago)
LIFR
Wind Visibility
Calm 4 miles
Clouds
  • Broken at 300' AGL
  • Overcast at 1,800' AGL
Conditions
  • Light Rain
Temperature Dewpoint
8°C / 46°F 8°C / 46°F
Humidity Altimeter Pressure
100% 30.14" Hg 1021 hPa